Time;durP1;ratioP1;P1;durP2;ratioP2;P2;SDS_P1;SDS_P2;PMS_P1;PMS_P2;Temp;Humidity;BMP_temperature;BMP_pressure;BME280_temperature;BME280_humidity;BME280_pressure;Samples;Min_cycle;Max_cycle;Signal;HPM_P1;HPM_P2
2021/12/25 00:01:46;;;;;;;10.48;4.00;;;2.10;99.90;;;;;;5056540;28;20136;-66
2021/12/25 00:04:11;;;;;;;10.20;3.92;;;2.10;99.90;;;;;;5061531;28;20056;-66
2021/12/25 00:06:37;;;;;;;9.00;3.53;;;2.10;99.90;;;;;;5056413;28;20121;-65
2021/12/25 00:09:04;;;;;;;7.78;3.63;;;2.10;99.90;;;;;;5060721;28;20166;-66
2021/12/25 00:11:30;;;;;;;9.65;3.38;;;2.10;99.90;;;;;;5065490;28;20060;-66
2021/12/25 00:13:56;;;;;;;9.93;3.78;;;2.10;99.90;;;;;;5062488;28;20060;-65
2021/12/25 00:16:21;;;;;;;7.95;2.92;;;2.10;99.90;;;;;;5055952;28;20128;-65
2021/12/25 00:18:47;;;;;;;8.07;3.10;;;2.00;99.90;;;;;;5064449;28;20040;-65
2021/12/25 00:21:12;;;;;;;7.60;3.10;;;1.90;99.90;;;;;;5061717;28;20036;-65
2021/12/25 00:23:38;;;;;;;7.70;2.90;;;1.90;99.90;;;;;;5059762;28;20079;-65
2021/12/25 00:26:10;;;;;;;6.97;2.78;;;1.90;99.90;;;;;;5057172;28;20090;-65
2021/12/25 00:36:17;;;;;;;9.45;2.75;;;1.90;99.90;;;;;;5053670;28;20525;-65
2021/12/25 00:38:43;;;;;;;6.53;2.85;;;1.90;99.90;;;;;;5055740;28;20616;-65
2021/12/25 00:41:10;;;;;;;7.13;2.80;;;1.80;99.90;;;;;;5056826;28;20114;-65
2021/12/25 00:43:36;;;;;;;8.25;2.60;;;1.90;99.90;;;;;;5058965;28;20482;-65
2021/12/25 00:46:02;;;;;;;8.93;3.08;;;1.80;99.90;;;;;;5056531;28;20072;-65
2021/12/25 00:48:28;;;;;;;7.78;2.95;;;1.70;99.90;;;;;;5053582;28;20047;-65
2021/12/25 00:50:54;;;;;;;6.45;2.67;;;1.80;99.90;;;;;;5052082;28;20391;-66
2021/12/25 00:53:20;;;;;;;8.30;2.85;;;1.70;99.90;;;;;;5065403;28;20154;-66
2021/12/25 00:55:46;;;;;;;8.07;2.97;;;1.70;99.90;;;;;;5059878;28;20040;-65
2021/12/25 00:58:12;;;;;;;7.85;2.80;;;1.80;99.90;;;;;;5065776;28;20456;-65
2021/12/25 01:00:38;;;;;;;8.27;2.70;;;1.70;99.90;;;;;;5061946;28;20444;-66
2021/12/25 01:03:04;;;;;;;7.05;2.97;;;1.80;99.90;;;;;;5059410;28;20132;-65
2021/12/25 01:05:30;;;;;;;6.57;2.58;;;1.70;99.90;;;;;;5058074;28;20456;-65
2021/12/25 01:07:55;;;;;;;6.10;2.75;;;1.60;99.90;;;;;;5059438;28;20056;-65
2021/12/25 01:10:22;;;;;;;7.93;2.72;;;1.60;99.90;;;;;;5054358;28;20083;-65
2021/12/25 01:15:20;;;;;;;9.02;2.33;;;1.50;99.90;;;;;;5051983;28;20120;-65
2021/12/25 01:18:08;;;;;;;7.72;3.05;;;1.50;99.90;;;;;;5060760;28;20415;-65
2021/12/25 01:23:45;;;;;;;7.20;2.78;;;1.50;99.90;;;;;;5056373;28;20143;-65
2021/12/25 01:31:28;;;;;;;8.77;2.45;;;1.50;99.90;;;;;;5053004;28;20376;-65
2021/12/25 01:47:43;;;;;;;7.95;2.20;;;1.30;99.90;;;;;;5056278;28;20056;-67
2021/12/25 01:50:09;;;;;;;5.63;2.05;;;1.20;99.90;;;;;;5053368;28;20044;-67
2021/12/25 01:52:35;;;;;;;6.85;1.80;;;1.10;99.90;;;;;;5058594;28;20407;-67
2021/12/25 01:55:05;;;;;;;5.68;2.03;;;1.00;99.90;;;;;;5057903;28;20791;-67
2021/12/25 01:57:31;;;;;;;6.25;1.58;;;0.90;99.90;;;;;;5057411;28;20383;-67
2021/12/25 01:59:58;;;;;;;3.58;1.42;;;0.90;99.90;;;;;;5058656;28;20539;-67
2021/12/25 02:02:24;;;;;;;7.72;1.75;;;0.90;99.90;;;;;;5060370;28;20078;-67
2021/12/25 02:04:50;;;;;;;6.32;1.77;;;0.90;99.90;;;;;;5050782;28;20087;-67
2021/12/25 02:07:17;;;;;;;5.07;1.42;;;0.90;99.90;;;;;;5054869;28;20064;-67
2021/12/25 02:09:42;;;;;;;5.90;1.48;;;0.80;99.90;;;;;;5053384;28;20052;-67
2021/12/25 02:12:10;;;;;;;3.97;1.40;;;0.80;99.90;;;;;;5063431;28;20116;-67
2021/12/25 02:14:37;;;;;;;5.15;1.48;;;0.70;99.90;;;;;;5062776;28;20052;-67
2021/12/25 02:20:06;;;;;;;4.50;1.40;;;0.70;99.90;;;;;;5052244;28;20116;-67
2021/12/25 02:22:33;;;;;;;4.90;1.30;;;0.60;99.90;;;;;;5054578;28;20036;-66
2021/12/25 02:24:59;;;;;;;3.97;1.20;;;0.50;99.90;;;;;;5055320;28;20052;-66
2021/12/25 02:27:24;;;;;;;3.58;1.17;;;0.50;99.90;;;;;;5038783;28;20037;-66
2021/12/25 02:29:50;;;;;;;3.25;1.30;;;0.50;99.90;;;;;;5056363;28;20155;-67
2021/12/25 02:32:15;;;;;;;3.92;1.35;;;0.40;99.90;;;;;;5049390;28;20041;-67
2021/12/25 02:34:41;;;;;;;5.40;1.38;;;0.40;99.90;;;;;;5059904;28;20188;-67
2021/12/25 02:37:06;;;;;;;3.47;1.10;;;0.30;99.90;;;;;;5057740;28;20432;-67
2021/12/25 02:39:32;;;;;;;4.57;1.30;;;0.30;99.90;;;;;;5058081;28;20457;-67
2021/12/25 02:41:58;;;;;;;4.63;1.33;;;0.20;99.90;;;;;;5055644;28;20112;-67
2021/12/25 02:44:23;;;;;;;5.72;1.13;;;0.20;99.90;;;;;;5056919;28;20047;-67
2021/12/25 02:46:53;;;;;;;3.65;1.10;;;0.20;99.90;;;;;;5053588;28;20037;-67
2021/12/25 02:49:19;;;;;;;4.35;1.00;;;0.20;99.90;;;;;;5055743;28;20113;-67
2021/12/25 02:51:46;;;;;;;4.65;1.10;;;0.10;99.90;;;;;;5053879;28;20107;-67
2021/12/25 02:54:12;;;;;;;4.78;1.08;;;0.10;99.90;;;;;;5063434;28;20547;-67
2021/12/25 02:56:37;;;;;;;5.32;1.40;;;0.10;99.90;;;;;;5053145;28;20116;-67
2021/12/25 02:59:03;;;;;;;9.55;1.38;;;0.10;99.90;;;;;;5054606;28;20056;-67
2021/12/25 03:01:28;;;;;;;6.13;1.23;;;0.10;99.90;;;;;;5039016;28;20106;-67
2021/12/25 03:03:54;;;;;;;2.97;1.02;;;0.00;99.90;;;;;;5057177;28;20047;-67
2021/12/25 03:06:20;;;;;;;4.15;1.10;;;-0.10;99.90;;;;;;5060956;28;20103;-67
2021/12/25 03:08:46;;;;;;;5.30;1.20;;;-0.10;99.90;;;;;;5062773;28;20049;-67
2021/12/25 03:11:15;;;;;;;5.43;1.25;;;-0.10;99.90;;;;;;5050947;28;20053;-67
2021/12/25 03:16:07;;;;;;;6.32;1.05;;;-0.10;99.90;;;;;;5058006;28;20079;-67
2021/12/25 03:18:45;;;;;;;4.70;1.30;;;-0.20;99.90;;;;;;5062473;28;20560;-67
2021/12/25 03:21:12;;;;;;;6.05;1.50;;;-0.20;99.90;;;;;;5052147;28;20045;-67
2021/12/25 03:23:38;;;;;;;5.50;1.10;;;-0.20;99.90;;;;;;5055656;28;20040;-67
2021/12/25 03:26:06;;;;;;;4.65;1.10;;;-0.20;99.90;;;;;;5064286;28;20086;-67
2021/12/25 03:28:33;;;;;;;5.78;1.33;;;-0.20;99.90;;;;;;5055642;28;20425;-67
2021/12/25 03:31:03;;;;;;;3.90;1.00;;;-0.20;99.90;;;;;;5061809;28;20056;-67
2021/12/25 03:33:30;;;;;;;5.13;1.13;;;-0.30;99.90;;;;;;5051296;28;20045;-67
2021/12/25 03:35:57;;;;;;;5.50;1.10;;;-0.30;99.90;;;;;;5062727;28;20054;-66
2021/12/25 03:38:24;;;;;;;3.25;1.10;;;-0.30;99.90;;;;;;5059767;28;20356;-66
2021/12/25 03:40:51;;;;;;;3.63;1.42;;;-0.40;99.90;;;;;;5056825;28;20083;-66
2021/12/25 03:43:18;;;;;;;4.60;0.90;;;-0.40;99.90;;;;;;5064114;28;20082;-67
2021/12/25 03:45:44;;;;;;;3.53;1.00;;;-0.40;99.90;;;;;;5057748;28;20072;-66
2021/12/25 03:48:16;;;;;;;6.82;1.20;;;-0.40;99.90;;;;;;5057346;28;20068;-67
2021/12/25 03:57:40;;;;;;;3.00;1.00;;;-0.40;99.90;;;;;;5049170;28;20044;-66
2021/12/25 03:59:12;;;;;;;2.92;1.00;;;-0.50;99.90;;;;;;5057411;28;20137;-66
2021/12/25 04:06:58;;;;;;;4.57;1.10;;;-0.70;99.90;;;;;;5055442;28;20346;-66
2021/12/25 04:09:29;;;;;;;3.10;0.80;;;-0.70;99.90;;;;;;5050504;28;20041;-66
2021/12/25 04:12:01;;;;;;;6.13;1.20;;;-0.80;99.90;;;;;;5063889;28;20053;-66
2021/12/25 04:14:26;;;;;;;4.07;1.00;;;-0.80;99.90;;;;;;5057553;28;20457;-66
2021/12/25 04:16:53;;;;;;;3.05;0.90;;;-0.80;99.90;;;;;;5057564;28;20051;-66
2021/12/25 04:19:19;;;;;;;3.90;1.00;;;-0.80;99.90;;;;;;5054942;28;20059;-66
2021/12/25 04:22:08;;;;;;;4.97;1.05;;;-0.90;99.90;;;;;;5051965;28;20052;-66
2021/12/25 04:24:35;;;;;;;4.15;1.20;;;-1.00;99.90;;;;;;5057757;28;20053;-66
2021/12/25 04:27:02;;;;;;;1.70;0.70;;;-1.00;99.90;;;;;;5057615;28;20097;-66
2021/12/25 05:03:02;;;;;;;2.45;0.82;;;-1.30;99.90;;;;;;5055491;28;20102;-66
2021/12/25 05:05:04;;;;;;;1.58;0.60;;;-1.30;99.90;;;;;;5051381;28;20056;-66
2021/12/25 05:07:30;;;;;;;3.83;0.80;;;-1.40;99.90;;;;;;5059316;28;20084;-66
2021/12/25 05:09:57;;;;;;;2.03;0.70;;;-1.40;99.90;;;;;;5055206;28;20099;-66
2021/12/25 05:12:22;;;;;;;4.78;0.90;;;-1.40;99.90;;;;;;5064771;28;20097;-66
2021/12/25 05:14:48;;;;;;;2.78;0.70;;;-1.50;99.90;;;;;;5062445;28;20045;-66
2021/12/25 05:17:13;;;;;;;2.35;0.80;;;-1.50;99.90;;;;;;5051037;28;20048;-66
2021/12/25 05:19:39;;;;;;;3.28;0.80;;;-1.50;99.90;;;;;;5056327;28;20121;-67
2021/12/25 05:22:05;;;;;;;1.50;0.52;;;-1.60;99.90;;;;;;5053320;28;20045;-67
2021/12/25 05:24:31;;;;;;;1.67;0.55;;;-1.60;99.90;;;;;;5061708;28;20334;-66
2021/12/25 05:26:57;;;;;;;2.42;0.70;;;-1.60;99.90;;;;;;5065749;28;20049;-66
2021/12/25 05:29:25;;;;;;;3.15;1.10;;;-1.60;99.90;;;;;;5056225;28;20407;-67
2021/12/25 05:31:51;;;;;;;1.40;0.63;;;-1.70;99.90;;;;;;5056282;28;20044;-67
2021/12/25 05:34:17;;;;;;;3.50;1.10;;;-1.70;99.90;;;;;;5053071;28;20033;-67
2021/12/25 05:36:43;;;;;;;3.15;0.70;;;-1.70;99.90;;;;;;5061414;28;20049;-67
2021/12/25 05:39:12;;;;;;;2.35;0.70;;;-1.70;99.90;;;;;;5052668;28;20052;-67
2021/12/25 05:41:38;;;;;;;1.60;0.93;;;-1.80;99.90;;;;;;5053559;28;20044;-67
2021/12/25 05:44:04;;;;;;;2.08;0.68;;;-1.80;99.90;;;;;;5055012;28;20048;-67
2021/12/25 05:46:29;;;;;;;2.25;0.80;;;-1.80;99.90;;;;;;5053311;28;20056;-67
2021/12/25 05:48:55;;;;;;;3.78;1.00;;;-1.80;99.90;;;;;;5056893;28;20040;-67
2021/12/25 05:51:21;;;;;;;3.78;1.00;;;-1.80;99.90;;;;;;5055604;28;20053;-67
2021/12/25 05:53:47;;;;;;;2.92;0.90;;;-1.80;99.90;;;;;;5053594;28;20052;-67
2021/12/25 05:56:13;;;;;;;2.92;0.80;;;-1.80;99.90;;;;;;5053970;28;20067;-67
2021/12/25 05:58:38;;;;;;;2.70;1.02;;;-1.80;99.90;;;;;;5052924;28;20174;-67
2021/12/25 06:01:04;;;;;;;2.05;0.80;;;-1.90;99.90;;;;;;5052008;28;20124;-67
2021/12/25 06:03:31;;;;;;;3.88;1.00;;;-1.90;99.90;;;;;;5054077;28;20056;-67
2021/12/25 06:05:57;;;;;;;4.10;1.10;;;-1.90;99.90;;;;;;5053752;28;20033;-67
2021/12/25 06:08:24;;;;;;;2.85;0.98;;;-1.90;99.90;;;;;;5053626;28;20102;-67
2021/12/25 06:10:50;;;;;;;2.38;0.80;;;-1.90;99.90;;;;;;5052354;28;20313;-67
2021/12/25 06:13:19;;;;;;;2.67;0.98;;;-1.90;99.90;;;;;;5055010;28;20093;-67
2021/12/25 06:15:45;;;;;;;2.35;0.60;;;-1.90;99.90;;;;;;5051940;28;20056;-67
2021/12/25 06:18:11;;;;;;;4.13;0.80;;;-1.90;99.90;;;;;;5058292;28;20040;-67
2021/12/25 06:20:38;;;;;;;2.17;0.82;;;-1.90;99.90;;;;;;5054641;28;20440;-67
2021/12/25 06:23:04;;;;;;;3.10;0.82;;;-2.00;99.90;;;;;;5050907;28;20051;-67
2021/12/25 06:25:30;;;;;;;2.10;0.60;;;-2.00;99.90;;;;;;5055011;28;20041;-67
2021/12/25 06:27:56;;;;;;;4.57;1.52;;;-2.00;99.90;;;;;;5054672;28;20047;-67
2021/12/25 06:30:21;;;;;;;1.92;0.80;;;-2.00;99.90;;;;;;5059391;28;20106;-67
2021/12/25 06:32:47;;;;;;;2.22;0.80;;;-2.00;99.90;;;;;;5054487;28;20044;-67
2021/12/25 06:35:16;;;;;;;2.50;0.70;;;-2.00;99.90;;;;;;5052871;28;20037;-67
2021/12/25 06:37:44;;;;;;;1.92;0.85;;;-2.00;99.90;;;;;;5057850;28;20056;-67
2021/12/25 06:40:11;;;;;;;3.65;1.05;;;-2.00;99.90;;;;;;5050977;28;20091;-67
2021/12/25 06:42:37;;;;;;;3.17;0.98;;;-2.00;99.90;;;;;;5062237;28;20579;-68
2021/12/25 06:45:04;;;;;;;4.47;0.90;;;-2.00;99.90;;;;;;5050857;28;20064;-67
2021/12/25 06:47:29;;;;;;;2.95;0.80;;;-1.90;99.90;;;;;;5054170;28;20123;-68
2021/12/25 06:49:55;;;;;;;1.10;0.60;;;-2.00;99.90;;;;;;5053467;28;20132;-66
2021/12/25 06:52:21;;;;;;;2.60;0.70;;;-2.00;99.90;;;;;;5058809;28;20532;-67
2021/12/25 06:54:46;;;;;;;2.13;0.52;;;-2.00;99.90;;;;;;5057865;28;20502;-66
2021/12/25 06:57:12;;;;;;;1.63;0.70;;;-1.90;99.90;;;;;;5051916;28;20062;-66
2021/12/25 06:59:37;;;;;;;4.68;0.98;;;-2.00;99.90;;;;;;5039221;28;20048;-65
2021/12/25 07:02:03;;;;;;;2.67;0.60;;;-2.00;99.90;;;;;;5054393;28;20103;-67
2021/12/25 07:04:40;;;;;;;1.75;0.60;;;-2.00;99.90;;;;;;5050477;28;20445;-67
2021/12/25 07:07:17;;;;;;;;;;;-2.00;99.90;;;;;;5037854;28;20048;-65
2021/12/25 07:09:42;;;;;;;1.65;0.63;;;-2.10;99.90;;;;;;5054309;28;19925;-67
2021/12/25 07:12:08;;;;;;;1.95;0.60;;;-2.10;99.90;;;;;;5049034;28;20037;-67
2021/12/25 07:14:34;;;;;;;2.35;0.65;;;-2.10;99.90;;;;;;5054580;28;20155;-66
2021/12/25 07:16:59;;;;;;;1.15;0.45;;;-2.20;99.90;;;;;;5054368;28;20045;-65
2021/12/25 07:19:25;;;;;;;3.22;0.70;;;-2.20;99.90;;;;;;5056143;28;20056;-68
2021/12/25 07:21:50;;;;;;;3.28;0.77;;;-2.20;99.90;;;;;;5051200;28;20040;-67
2021/12/25 07:24:16;;;;;;;3.10;1.00;;;-2.30;99.90;;;;;;5067664;28;20059;-66
2021/12/25 07:26:42;;;;;;;1.75;0.60;;;-2.30;99.90;;;;;;5051727;28;20049;-67
2021/12/25 07:29:08;;;;;;;3.13;0.60;;;-2.30;99.90;;;;;;5059743;28;20389;-67
2021/12/25 07:31:34;;;;;;;2.47;0.73;;;-2.30;99.90;;;;;;5051837;28;20334;-67
2021/12/25 07:34:02;;;;;;;1.58;0.70;;;-2.40;99.90;;;;;;5048679;28;20041;-67
2021/12/25 07:36:28;;;;;;;1.00;0.60;;;-2.40;99.90;;;;;;5052342;28;20053;-67
2021/12/25 07:38:55;;;;;;;1.65;0.50;;;-2.30;99.90;;;;;;5063395;28;20468;-67
2021/12/25 07:41:20;;;;;;;1.98;0.60;;;-2.30;99.90;;;;;;5056661;28;20054;-67
2021/12/25 07:43:46;;;;;;;1.13;0.50;;;-2.30;99.90;;;;;;5054150;28;20102;-67
2021/12/25 07:46:11;;;;;;;1.88;0.50;;;-2.40;99.90;;;;;;5048776;28;20087;-66
2021/12/25 07:48:37;;;;;;;2.80;0.70;;;-2.40;99.90;;;;;;5055440;28;20496;-67
2021/12/25 07:51:03;;;;;;;2.42;0.75;;;-2.50;99.90;;;;;;5054603;28;20491;-67
2021/12/25 07:53:30;;;;;;;1.13;0.38;;;-2.40;99.90;;;;;;5060322;28;20715;-67
2021/12/25 07:55:56;;;;;;;3.47;0.70;;;-2.40;99.90;;;;;;5053096;28;20064;-67
2021/12/25 07:58:22;;;;;;;3.65;0.70;;;-2.40;99.90;;;;;;5049522;28;20044;-66
2021/12/25 08:00:48;;;;;;;0.98;0.40;;;-2.40;99.90;;;;;;5058391;28;20176;-66
2021/12/25 08:03:15;;;;;;;1.67;0.40;;;-2.50;99.90;;;;;;5062247;28;20139;-66
2021/12/25 08:05:42;;;;;;;1.50;0.47;;;-2.50;99.90;;;;;;5062589;28;20060;-66
2021/12/25 08:08:10;;;;;;;1.10;0.50;;;-2.50;99.90;;;;;;5061521;28;20060;-67
2021/12/25 08:10:36;;;;;;;2.15;0.68;;;-2.50;99.90;;;;;;5051483;28;20098;-66
2021/12/25 08:13:02;;;;;;;2.55;0.60;;;-2.50;99.90;;;;;;5060681;28;20460;-66
2021/12/25 08:15:30;;;;;;;2.53;0.65;;;-2.50;99.90;;;;;;5058496;28;20056;-67
2021/12/25 08:17:57;;;;;;;4.03;0.70;;;-2.50;99.90;;;;;;5055466;28;20086;-66
2021/12/25 08:20:24;;;;;;;3.03;0.70;;;-2.50;99.90;;;;;;5062408;28;20041;-66
2021/12/25 08:22:51;;;;;;;2.47;0.60;;;-2.50;99.90;;;;;;5059482;28;20336;-66
2021/12/25 08:25:17;;;;;;;2.58;0.73;;;-2.50;99.90;;;;;;5067760;28;20036;-65
2021/12/25 08:27:44;;;;;;;3.00;0.60;;;-2.40;99.90;;;;;;5064191;28;20053;-65
2021/12/25 08:30:14;;;;;;;1.75;0.55;;;-2.40;99.90;;;;;;5060992;28;20052;-67
2021/12/25 08:32:41;;;;;;;1.60;0.50;;;-2.40;99.90;;;;;;5063378;28;20483;-66
2021/12/25 08:35:08;;;;;;;1.95;0.65;;;-2.40;99.90;;;;;;5085954;28;20500;-66
2021/12/25 08:37:34;;;;;;;3.70;0.50;;;-2.40;99.90;;;;;;5058179;28;20068;-67
2021/12/25 08:40:00;;;;;;;2.85;0.93;;;-2.50;99.90;;;;;;5059819;28;20167;-67
2021/12/25 08:42:26;;;;;;;2.00;0.52;;;-2.50;99.90;;;;;;5059233;28;20048;-66
2021/12/25 08:45:05;;;;;;;3.40;0.52;;;-2.40;99.90;;;;;;5058079;28;20044;-66
2021/12/25 08:47:35;;;;;;;3.13;1.10;;;-2.30;99.90;;;;;;5057289;28;20060;-66
2021/12/25 08:50:10;;;;;;;1.23;0.40;;;-2.40;99.90;;;;;;5053052;28;20037;-66
2021/12/25 08:52:35;;;;;;;0.90;0.43;;;-2.30;99.90;;;;;;5056422;28;20060;-67
2021/12/25 08:55:01;;;;;;;2.00;0.50;;;-2.40;99.90;;;;;;5056995;28;20151;-68
2021/12/25 08:57:28;;;;;;;1.00;0.50;;;-2.30;99.90;;;;;;5056253;28;20398;-67
2021/12/25 08:59:56;;;;;;;2.45;0.60;;;-2.30;99.90;;;;;;5061047;28;20377;-67
2021/12/25 09:02:23;;;;;;;1.98;0.50;;;-2.20;99.90;;;;;;5055666;28;20045;-68
2021/12/25 09:04:50;;;;;;;3.20;0.55;;;-2.20;99.90;;;;;;5057772;28;20040;-67
2021/12/25 09:07:16;;;;;;;2.33;0.60;;;-2.20;99.90;;;;;;5063142;28;20500;-67
2021/12/25 09:09:42;;;;;;;3.30;0.80;;;-2.20;99.90;;;;;;5069764;28;20123;-66
2021/12/25 09:12:11;;;;;;;12.00;1.23;;;-2.20;99.90;;;;;;5056685;28;20488;-66
2021/12/25 09:14:37;;;;;;;1.50;0.65;;;-2.10;99.90;;;;;;5052262;28;20045;-67
2021/12/25 09:17:04;;;;;;;2.20;0.70;;;-2.10;99.90;;;;;;5069517;28;20040;-66
2021/12/25 09:19:29;;;;;;;2.45;0.55;;;-2.20;99.90;;;;;;5057180;28;20450;-67
2021/12/25 09:21:55;;;;;;;1.58;0.60;;;-2.10;99.90;;;;;;5060727;28;20098;-67
2021/12/25 09:24:21;;;;;;;3.50;0.85;;;-2.10;99.90;;;;;;5060007;28;20098;-66
2021/12/25 09:26:48;;;;;;;1.50;0.60;;;-2.10;99.90;;;;;;5050618;28;20492;-67
2021/12/25 09:29:13;;;;;;;2.17;0.70;;;-2.10;99.90;;;;;;5068183;28;20467;-67
2021/12/25 09:31:39;;;;;;;2.05;0.50;;;-2.10;99.90;;;;;;5063482;28;20080;-68
2021/12/25 09:34:04;;;;;;;2.63;0.52;;;-2.10;99.90;;;;;;5053250;28;20388;-67
2021/12/25 09:36:31;;;;;;;1.58;0.60;;;-2.10;99.90;;;;;;5054219;28;20036;-67
2021/12/25 09:38:57;;;;;;;1.77;0.60;;;-2.00;99.90;;;;;;5055412;28;20056;-67
2021/12/25 09:41:22;;;;;;;1.00;0.40;;;-2.00;99.90;;;;;;5052113;28;20045;-67
2021/12/25 09:43:49;;;;;;;1.92;0.60;;;-2.00;99.90;;;;;;5070697;28;20040;-68
2021/12/25 09:46:20;;;;;;;3.95;0.77;;;-1.90;99.90;;;;;;5052019;28;20480;-68
2021/12/25 09:48:47;;;;;;;2.83;0.60;;;-1.90;99.90;;;;;;5051874;28;20049;-68
2021/12/25 09:51:13;;;;;;;2.42;0.60;;;-1.90;99.90;;;;;;5052134;28;20453;-68
2021/12/25 09:53:39;;;;;;;1.48;0.60;;;-1.90;99.90;;;;;;5057485;28;20044;-70
2021/12/25 09:56:06;;;;;;;1.75;0.57;;;-1.80;99.90;;;;;;5055264;28;20108;-68
2021/12/25 09:58:32;;;;;;;3.67;0.80;;;-1.80;99.90;;;;;;5051042;28;20047;-68
2021/12/25 10:00:59;;;;;;;2.03;0.60;;;-1.80;99.90;;;;;;5054185;28;20037;-68
2021/12/25 10:03:41;;;;;;;3.67;0.70;;;-1.70;99.90;;;;;;5064462;28;20053;-68
2021/12/25 10:06:06;;;;;;;2.28;0.57;;;-1.80;99.90;;;;;;5055907;28;20044;-68
2021/12/25 10:08:37;;;;;;;2.58;0.68;;;-1.70;99.90;;;;;;5057083;28;20056;-68
2021/12/25 10:11:04;;;;;;;3.03;0.75;;;-1.70;99.90;;;;;;5060716;28;20044;-68
2021/12/25 10:13:40;;;;;;;1.98;0.68;;;-1.70;99.90;;;;;;5065766;28;20049;-68
2021/12/25 10:16:29;;;;;;;2.53;0.70;;;-1.60;99.90;;;;;;5064340;28;20071;-67
2021/12/25 10:19:13;;;;;;;2.92;0.80;;;-1.60;99.90;;;;;;5053747;28;20419;-68
2021/12/25 10:21:39;;;;;;;2.30;0.98;;;-1.60;99.90;;;;;;5048411;28;20060;-67
2021/12/25 10:24:09;;;;;;;12.63;4.75;;;-1.50;99.90;;;;;;5053267;28;20388;-67
2021/12/25 10:26:37;;;;;;;5.60;2.78;;;-1.60;99.90;;;;;;5063622;28;20352;-70
2021/12/25 10:29:28;;;;;;;3.35;1.20;;;-1.60;99.90;;;;;;5053895;28;20130;-69
2021/12/25 10:31:58;;;;;;;4.55;1.75;;;-1.60;99.90;;;;;;5060395;28;20032;-69
2021/12/25 10:34:28;;;;;;;2.13;0.70;;;-1.50;99.90;;;;;;5057828;28;20392;-70
2021/12/25 10:37:04;;;;;;;7.90;4.30;;;-1.50;99.90;;;;;;5057656;28;20090;-71
2021/12/25 10:39:29;;;;;;;4.70;1.80;;;-1.50;99.90;;;;;;5041018;28;20044;-70
2021/12/25 10:42:06;;;;;;;5.28;2.20;;;-1.50;99.90;;;;;;5059609;28;20037;-71
2021/12/25 10:44:34;;;;;;;1.27;0.70;;;-1.40;99.90;;;;;;5056012;28;20048;-70
2021/12/25 10:47:03;;;;;;;2.72;0.85;;;-1.40;99.90;;;;;;5057007;28;20052;-73
2021/12/25 10:49:35;;;;;;;4.35;0.90;;;-1.30;99.90;;;;;;5052775;28;20041;-72
2021/12/25 10:52:16;;;;;;;3.40;0.82;;;-1.30;99.90;;;;;;5062467;28;20111;-72
2021/12/25 10:54:49;;;;;;;4.25;0.65;;;-1.30;99.90;;;;;;5051985;28;20080;-69
2021/12/25 10:57:38;;;;;;;4.47;0.82;;;-1.20;99.90;;;;;;5052966;28;20032;-70
2021/12/25 11:00:10;;;;;;;3.40;0.90;;;-1.20;99.90;;;;;;5051755;28;20056;-69
2021/12/25 11:02:39;;;;;;;2.78;0.88;;;-1.20;99.90;;;;;;5057624;28;20076;-69
2021/12/25 11:05:19;;;;;;;2.35;0.73;;;-1.20;99.90;;;;;;5039514;28;20044;-69
2021/12/25 11:07:46;;;;;;;2.45;0.88;;;-1.20;99.30;;;;;;5057630;28;20064;-69
2021/12/25 11:10:18;;;;;;;2.40;0.60;;;-1.20;99.20;;;;;;5056009;28;20075;-69
2021/12/25 11:12:44;;;;;;;1.90;0.60;;;-1.10;99.90;;;;;;5054984;28;20142;-69
2021/12/25 11:15:20;;;;;;;4.15;0.80;;;-1.10;98.80;;;;;;5052916;28;20466;-69
2021/12/25 11:17:51;;;;;;;3.22;0.75;;;-1.10;99.30;;;;;;5054263;28;20041;-69
2021/12/25 11:20:28;;;;;;;2.38;0.93;;;-1.00;99.90;;;;;;5058679;28;20055;-70
2021/12/25 11:22:56;;;;;;;2.10;0.70;;;-1.00;98.30;;;;;;5041037;28;20372;-69
2021/12/25 11:25:25;;;;;;;1.40;0.52;;;-1.00;99.20;;;;;;5057527;28;20392;-69
2021/12/25 11:27:52;;;;;;;3.38;0.77;;;-1.00;98.30;;;;;;5055204;28;20479;-69
2021/12/25 11:30:20;;;;;;;1.95;1.00;;;-1.00;97.70;;;;;;5056275;28;20048;-70
2021/12/25 11:32:48;;;;;;;2.08;0.65;;;-1.00;97.40;;;;;;5054541;28;20107;-71
2021/12/25 11:35:15;;;;;;;3.42;0.80;;;-1.00;97.50;;;;;;5058830;28;20039;-71
2021/12/25 11:37:42;;;;;;;2.38;0.80;;;-1.00;96.60;;;;;;5056434;28;20048;-70
2021/12/25 11:40:10;;;;;;;2.60;0.70;;;-1.00;97.90;;;;;;5051286;28;20129;-68
2021/12/25 11:42:48;;;;;;;3.22;0.88;;;-1.00;98.20;;;;;;5058607;28;20041;-70
2021/12/25 11:45:14;;;;;;;2.88;0.75;;;-1.00;97.70;;;;;;5064931;28;20448;-69
2021/12/25 11:47:53;;;;;;;3.95;0.70;;;-1.00;97.10;;;;;;5067029;28;20045;-68
2021/12/25 11:50:21;;;;;;;2.72;0.70;;;-0.90;98.30;;;;;;5054695;28;20116;-69
2021/12/25 11:53:04;;;;;;;2.58;0.60;;;-0.90;97.30;;;;;;5071418;28;20048;-69
2021/12/25 11:56:00;;;;;;;1.38;0.50;;;-0.90;97.80;;;;;;5062376;28;20555;-70
2021/12/25 11:58:40;;;;;;;1.88;0.75;;;-0.90;98.00;;;;;;5054910;28;20123;-71
2021/12/25 12:01:18;;;;;;;2.63;0.75;;;-0.90;96.30;;;;;;5063298;28;20110;-69
2021/12/25 12:03:47;;;;;;;2.50;0.68;;;-0.90;97.50;;;;;;5065325;28;20139;-71
2021/12/25 12:06:14;;;;;;;1.35;0.60;;;-0.80;97.10;;;;;;5034390;28;20044;-72
2021/12/25 12:08:55;;;;;;;2.45;0.77;;;-0.80;97.60;;;;;;5032330;28;20114;-72
2021/12/25 12:11:23;;;;;;;2.85;0.65;;;-0.80;96.50;;;;;;5058029;28;20060;-72
2021/12/25 12:14:11;;;;;;;2.13;0.70;;;-0.80;96.40;;;;;;5052460;28;20037;-72
2021/12/25 12:16:40;;;;;;;2.70;0.52;;;-0.80;96.10;;;;;;5071554;28;20044;-72
2021/12/25 12:19:29;;;;;;;1.90;0.80;;;-0.80;97.10;;;;;;5071379;28;20491;-72
2021/12/25 12:21:55;;;;;;;3.10;0.80;;;-0.80;96.50;;;;;;5057455;28;20051;-72
2021/12/25 12:24:48;;;;;;;2.15;0.73;;;-0.80;95.80;;;;;;5054084;28;20135;-71
2021/12/25 12:27:32;;;;;;;2.70;0.80;;;-0.80;95.90;;;;;;5070222;28;20049;-71
2021/12/25 12:29:58;;;;;;;2.78;1.00;;;-0.80;97.40;;;;;;5050916;28;20056;-70
2021/12/25 12:32:35;;;;;;;1.85;0.70;;;-0.80;95.60;;;;;;5066589;28;20052;-69
2021/12/25 12:35:22;;;;;;;2.85;0.60;;;-0.80;96.20;;;;;;5072132;28;20689;-69
2021/12/25 12:37:48;;;;;;;4.85;1.23;;;-0.70;96.60;;;;;;5052904;28;20036;-70
2021/12/25 12:40:20;;;;;;;3.53;1.58;;;-0.70;95.40;;;;;;5054116;28;20440;-71
2021/12/25 12:42:50;;;;;;;3.15;1.10;;;-0.70;96.00;;;;;;5054657;28;20041;-71
2021/12/25 12:45:25;;;;;;;3.80;0.95;;;-0.70;96.00;;;;;;5055656;28;20101;-70
2021/12/25 12:48:10;;;;;;;3.05;1.00;;;-0.70;95.30;;;;;;5051009;28;20089;-71
2021/12/25 12:50:37;;;;;;;3.08;0.80;;;-0.70;96.30;;;;;;5068199;28;20061;-71
2021/12/25 12:53:07;;;;;;;3.38;0.60;;;-0.70;96.00;;;;;;5062255;28;20083;-72
2021/12/25 12:55:42;;;;;;;2.70;0.90;;;-0.70;95.50;;;;;;5049774;28;20550;-71
2021/12/25 12:58:27;;;;;;;2.83;0.82;;;-0.70;96.10;;;;;;5054666;28;20047;-69
2021/12/25 13:01:00;;;;;;;2.90;0.70;;;-0.70;95.70;;;;;;5061788;28;20087;-70
2021/12/25 13:03:28;;;;;;;3.55;1.30;;;-0.70;95.20;;;;;;5051570;28;20052;-70
2021/12/25 13:06:04;;;;;;;2.83;0.70;;;-0.70;94.10;;;;;;5051315;28;20871;-70
2021/12/25 13:08:32;;;;;;;3.58;0.70;;;-0.70;92.90;;;;;;5057558;28;20573;-71
2021/12/25 13:11:07;;;;;;;2.05;0.70;;;-0.70;94.00;;;;;;5057016;28;20049;-74
2021/12/25 13:13:39;;;;;;;2.08;0.90;;;-0.70;94.00;;;;;;5056269;28;20075;-71
2021/12/25 13:16:10;;;;;;;5.22;1.42;;;-0.60;94.80;;;;;;5058862;28;20048;-69
2021/12/25 13:18:51;;;;;;;3.05;1.00;;;-0.60;94.90;;;;;;5037144;28;20044;-68
2021/12/25 13:21:29;;;;;;;3.75;1.40;;;-0.70;94.20;;;;;;5053279;28;20344;-68
2021/12/25 13:23:58;;;;;;;4.35;1.77;;;-0.70;95.00;;;;;;5062011;28;20056;-69
2021/12/25 13:26:34;;;;;;;5.03;1.27;;;-0.60;94.50;;;;;;5064069;28;20456;-69
2021/12/25 13:29:21;;;;;;;1.63;0.65;;;-0.60;94.10;;;;;;5066733;28;20045;-70
2021/12/25 13:31:47;;;;;;;4.65;0.98;;;-0.60;94.30;;;;;;5054833;28;20045;-70
2021/12/25 13:34:18;;;;;;;3.67;1.40;;;-0.60;94.10;;;;;;5053321;28;20041;-70
2021/12/25 13:36:56;;;;;;;4.25;1.65;;;-0.60;94.90;;;;;;5052317;28;20065;-69
2021/12/25 13:39:26;;;;;;;2.88;0.90;;;-0.60;94.60;;;;;;5061532;28;20139;-70
2021/12/25 13:42:05;;;;;;;3.67;1.00;;;-0.60;95.30;;;;;;5063781;28;20046;-70
2021/12/25 13:44:36;;;;;;;1.63;0.70;;;-0.60;94.50;;;;;;5061246;28;20207;-70
2021/12/25 13:47:14;;;;;;;1.92;0.63;;;-0.60;94.70;;;;;;5069156;28;20487;-70
2021/12/25 13:49:51;;;;;;;3.42;0.77;;;-0.60;95.10;;;;;;5052544;28;20123;-70
2021/12/25 13:52:20;;;;;;;3.20;0.70;;;-0.70;93.30;;;;;;5050414;28;20044;-72
2021/12/25 13:54:54;;;;;;;3.10;0.90;;;-0.70;93.80;;;;;;5058355;28;20123;-71
2021/12/25 13:57:21;;;;;;;2.00;0.70;;;-0.70;93.40;;;;;;5055559;28;20052;-72
2021/12/25 13:59:54;;;;;;;2.53;0.77;;;-0.70;94.90;;;;;;5065860;28;20072;-72
2021/12/25 14:02:21;;;;;;;3.58;0.90;;;-0.70;94.40;;;;;;5050729;28;20059;-74
2021/12/25 14:04:51;;;;;;;2.13;0.73;;;-0.70;95.30;;;;;;5049520;28;20426;-71
2021/12/25 14:07:19;;;;;;;3.50;0.90;;;-0.70;93.70;;;;;;5049754;28;20149;-70
2021/12/25 14:09:56;;;;;;;2.35;0.57;;;-0.80;94.30;;;;;;5059788;28;20044;-71
2021/12/25 14:12:23;;;;;;;3.42;1.00;;;-0.70;93.90;;;;;;5051747;28;20052;-72
2021/12/25 14:14:49;;;;;;;2.63;0.80;;;-0.80;94.60;;;;;;5052282;28;20115;-71
2021/12/25 14:17:15;;;;;;;3.22;0.80;;;-0.80;94.10;;;;;;5065376;28;20052;-71
2021/12/25 14:19:41;;;;;;;3.72;1.45;;;-0.80;94.90;;;;;;5057102;28;20147;-70